sensor_id;sensor_type;location;lat;lon;timestamp;P1;durP1;ratioP1;P2;durP2;ratioP2
4464;SDS011;2245;48.136;13.428;2022-11-23T00:01:41;2.70;;;2.47;;
4464;SDS011;2245;48.136;13.428;2022-11-23T00:04:09;5.27;;;3.00;;
4464;SDS011;2245;48.136;13.428;2022-11-23T00:06:39;5.70;;;3.20;;
4464;SDS011;2245;48.136;13.428;2022-11-23T00:09:08;9.23;;;3.10;;
4464;SDS011;2245;48.136;13.428;2022-11-23T00:11:35;1.83;;;1.73;;
4464;SDS011;2245;48.136;13.428;2022-11-23T00:14:02;2.03;;;1.90;;
4464;SDS011;2245;48.136;13.428;2022-11-23T00:16:29;5.13;;;3.10;;
4464;SDS011;2245;48.136;13.428;2022-11-23T00:18:57;2.57;;;2.23;;
4464;SDS011;2245;48.136;13.428;2022-11-23T00:21:25;2.73;;;2.53;;
4464;SDS011;2245;48.136;13.428;2022-11-23T00:23:58;3.70;;;2.97;;
4464;SDS011;2245;48.136;13.428;2022-11-23T00:26:25;3.17;;;2.73;;
4464;SDS011;2245;48.136;13.428;2022-11-23T00:28:53;9.33;;;2.87;;
4464;SDS011;2245;48.136;13.428;2022-11-23T00:31:20;6.13;;;2.70;;
4464;SDS011;2245;48.136;13.428;2022-11-23T00:33:49;3.97;;;3.30;;
4464;SDS011;2245;48.136;13.428;2022-11-23T00:36:17;6.60;;;3.33;;
4464;SDS011;2245;48.136;13.428;2022-11-23T00:38:46;5.43;;;2.77;;
4464;SDS011;2245;48.136;13.428;2022-11-23T00:41:15;3.30;;;2.57;;
4464;SDS011;2245;48.136;13.428;2022-11-23T00:43:43;3.00;;;2.60;;
4464;SDS011;2245;48.136;13.428;2022-11-23T00:46:12;5.60;;;3.00;;
4464;SDS011;2245;48.136;13.428;2022-11-23T00:48:39;4.47;;;3.43;;
4464;SDS011;2245;48.136;13.428;2022-11-23T00:51:07;11.93;;;3.70;;
4464;SDS011;2245;48.136;13.428;2022-11-23T00:53:36;5.33;;;3.83;;
4464;SDS011;2245;48.136;13.428;2022-11-23T00:56:03;3.50;;;3.10;;
4464;SDS011;2245;48.136;13.428;2022-11-23T00:58:32;4.90;;;2.97;;
4464;SDS011;2245;48.136;13.428;2022-11-23T01:01:03;4.23;;;3.00;;
4464;SDS011;2245;48.136;13.428;2022-11-23T01:03:32;7.00;;;3.63;;
4464;SDS011;2245;48.136;13.428;2022-11-23T01:06:03;4.97;;;3.73;;
4464;SDS011;2245;48.136;13.428;2022-11-23T01:08:31;6.23;;;4.10;;
4464;SDS011;2245;48.136;13.428;2022-11-23T01:10:58;8.70;;;3.70;;
4464;SDS011;2245;48.136;13.428;2022-11-23T01:13:27;4.60;;;3.23;;
4464;SDS011;2245;48.136;13.428;2022-11-23T01:15:55;5.67;;;4.17;;
4464;SDS011;2245;48.136;13.428;2022-11-23T01:18:25;4.43;;;3.17;;
4464;SDS011;2245;48.136;13.428;2022-11-23T01:20:55;6.13;;;3.03;;
4464;SDS011;2245;48.136;13.428;2022-11-23T01:23:35;5.37;;;2.73;;
4464;SDS011;2245;48.136;13.428;2022-11-23T01:26:03;5.80;;;2.57;;
4464;SDS011;2245;48.136;13.428;2022-11-23T01:28:33;4.43;;;3.43;;
4464;SDS011;2245;48.136;13.428;2022-11-23T01:31:05;6.70;;;3.53;;
4464;SDS011;2245;48.136;13.428;2022-11-23T01:33:34;4.63;;;3.57;;
4464;SDS011;2245;48.136;13.428;2022-11-23T01:36:07;4.10;;;3.17;;
4464;SDS011;2245;48.136;13.428;2022-11-23T01:38:34;6.27;;;3.07;;
4464;SDS011;2245;48.136;13.428;2022-11-23T01:41:02;6.03;;;2.83;;
4464;SDS011;2245;48.136;13.428;2022-11-23T01:43:29;5.67;;;2.80;;
4464;SDS011;2245;48.136;13.428;2022-11-23T01:45:57;6.63;;;3.50;;
4464;SDS011;2245;48.136;13.428;2022-11-23T01:48:27;4.83;;;3.20;;
4464;SDS011;2245;48.136;13.428;2022-11-23T01:50:56;3.17;;;2.80;;
4464;SDS011;2245;48.136;13.428;2022-11-23T01:53:25;11.13;;;3.10;;
4464;SDS011;2245;48.136;13.428;2022-11-23T01:55:54;6.93;;;3.27;;
4464;SDS011;2245;48.136;13.428;2022-11-23T01:58:24;10.03;;;3.57;;
4464;SDS011;2245;48.136;13.428;2022-11-23T02:00:53;6.97;;;3.10;;
4464;SDS011;2245;48.136;13.428;2022-11-23T02:03:20;6.53;;;3.30;;
4464;SDS011;2245;48.136;13.428;2022-11-23T02:05:49;5.13;;;4.67;;
4464;SDS011;2245;48.136;13.428;2022-11-23T02:08:23;5.57;;;3.60;;
4464;SDS011;2245;48.136;13.428;2022-11-23T02:10:51;5.60;;;2.40;;
4464;SDS011;2245;48.136;13.428;2022-11-23T02:13:20;3.00;;;2.50;;
4464;SDS011;2245;48.136;13.428;2022-11-23T02:15:56;3.27;;;2.00;;
4464;SDS011;2245;48.136;13.428;2022-11-23T02:18:24;5.03;;;2.20;;
4464;SDS011;2245;48.136;13.428;2022-11-23T02:20:53;2.20;;;2.00;;
4464;SDS011;2245;48.136;13.428;2022-11-23T02:23:25;3.60;;;2.63;;
4464;SDS011;2245;48.136;13.428;2022-11-23T02:26:00;2.43;;;1.77;;
4464;SDS011;2245;48.136;13.428;2022-11-23T02:28:32;2.97;;;1.70;;
4464;SDS011;2245;48.136;13.428;2022-11-23T02:31:01;5.00;;;2.03;;
4464;SDS011;2245;48.136;13.428;2022-11-23T02:33:28;1.77;;;1.67;;
4464;SDS011;2245;48.136;13.428;2022-11-23T02:35:56;2.53;;;1.70;;
4464;SDS011;2245;48.136;13.428;2022-11-23T02:38:29;1.83;;;1.60;;
4464;SDS011;2245;48.136;13.428;2022-11-23T02:40:57;8.43;;;2.10;;
4464;SDS011;2245;48.136;13.428;2022-11-23T02:43:26;5.90;;;3.10;;
4464;SDS011;2245;48.136;13.428;2022-11-23T02:45:56;8.50;;;2.17;;
4464;SDS011;2245;48.136;13.428;2022-11-23T02:48:25;5.90;;;1.67;;
4464;SDS011;2245;48.136;13.428;2022-11-23T02:50:54;2.60;;;2.33;;
4464;SDS011;2245;48.136;13.428;2022-11-23T02:53:23;4.33;;;2.50;;
4464;SDS011;2245;48.136;13.428;2022-11-23T02:55:50;5.10;;;3.07;;
4464;SDS011;2245;48.136;13.428;2022-11-23T02:58:19;3.30;;;2.37;;
4464;SDS011;2245;48.136;13.428;2022-11-23T03:00:46;5.63;;;2.40;;
4464;SDS011;2245;48.136;13.428;2022-11-23T03:03:13;1.83;;;1.73;;
4464;SDS011;2245;48.136;13.428;2022-11-23T03:05:42;3.30;;;2.30;;
4464;SDS011;2245;48.136;13.428;2022-11-23T03:08:09;3.23;;;2.30;;
4464;SDS011;2245;48.136;13.428;2022-11-23T03:10:36;6.90;;;2.10;;
4464;SDS011;2245;48.136;13.428;2022-11-23T03:13:03;8.20;;;3.40;;
4464;SDS011;2245;48.136;13.428;2022-11-23T03:15:31;10.63;;;3.23;;
4464;SDS011;2245;48.136;13.428;2022-11-23T03:17:59;3.13;;;2.83;;
4464;SDS011;2245;48.136;13.428;2022-11-23T03:20:26;2.90;;;2.23;;
4464;SDS011;2245;48.136;13.428;2022-11-23T03:22:53;2.93;;;2.00;;
4464;SDS011;2245;48.136;13.428;2022-11-23T03:25:20;3.87;;;2.50;;
4464;SDS011;2245;48.136;13.428;2022-11-23T03:27:47;3.27;;;2.57;;
4464;SDS011;2245;48.136;13.428;2022-11-23T03:30:14;2.93;;;2.57;;
4464;SDS011;2245;48.136;13.428;2022-11-23T03:32:42;5.47;;;3.50;;
4464;SDS011;2245;48.136;13.428;2022-11-23T03:35:09;5.90;;;3.60;;
4464;SDS011;2245;48.136;13.428;2022-11-23T03:37:37;4.43;;;3.37;;
4464;SDS011;2245;48.136;13.428;2022-11-23T03:40:04;4.03;;;3.23;;
4464;SDS011;2245;48.136;13.428;2022-11-23T03:42:31;5.37;;;3.30;;
4464;SDS011;2245;48.136;13.428;2022-11-23T03:45:06;6.63;;;3.80;;
4464;SDS011;2245;48.136;13.428;2022-11-23T03:47:35;4.90;;;3.83;;
4464;SDS011;2245;48.136;13.428;2022-11-23T03:50:06;4.40;;;4.00;;
4464;SDS011;2245;48.136;13.428;2022-11-23T03:52:41;4.13;;;3.40;;
4464;SDS011;2245;48.136;13.428;2022-11-23T03:55:08;4.70;;;3.90;;
4464;SDS011;2245;48.136;13.428;2022-11-23T03:57:35;7.80;;;3.90;;
4464;SDS011;2245;48.136;13.428;2022-11-23T04:00:03;6.27;;;4.20;;
4464;SDS011;2245;48.136;13.428;2022-11-23T04:02:31;5.03;;;3.10;;
4464;SDS011;2245;48.136;13.428;2022-11-23T04:04:58;7.57;;;4.00;;
4464;SDS011;2245;48.136;13.428;2022-11-23T04:07:28;5.83;;;3.60;;
4464;SDS011;2245;48.136;13.428;2022-11-23T04:09:58;6.53;;;4.00;;
4464;SDS011;2245;48.136;13.428;2022-11-23T04:12:25;5.90;;;4.10;;
4464;SDS011;2245;48.136;13.428;2022-11-23T04:14:52;6.67;;;4.97;;
4464;SDS011;2245;48.136;13.428;2022-11-23T04:17:20;9.07;;;4.57;;
4464;SDS011;2245;48.136;13.428;2022-11-23T04:19:47;7.77;;;4.93;;
4464;SDS011;2245;48.136;13.428;2022-11-23T04:22:15;9.03;;;5.37;;
4464;SDS011;2245;48.136;13.428;2022-11-23T04:24:43;8.33;;;5.60;;
4464;SDS011;2245;48.136;13.428;2022-11-23T04:27:12;6.33;;;4.90;;
4464;SDS011;2245;48.136;13.428;2022-11-23T04:29:41;10.83;;;5.67;;
4464;SDS011;2245;48.136;13.428;2022-11-23T04:32:10;8.80;;;6.43;;
4464;SDS011;2245;48.136;13.428;2022-11-23T04:34:37;7.03;;;5.77;;
4464;SDS011;2245;48.136;13.428;2022-11-23T04:37:04;7.70;;;6.00;;
4464;SDS011;2245;48.136;13.428;2022-11-23T04:39:31;10.03;;;6.73;;
4464;SDS011;2245;48.136;13.428;2022-11-23T04:42:02;13.80;;;6.07;;
4464;SDS011;2245;48.136;13.428;2022-11-23T04:44:29;12.20;;;7.63;;
4464;SDS011;2245;48.136;13.428;2022-11-23T04:46:56;10.50;;;7.30;;
4464;SDS011;2245;48.136;13.428;2022-11-23T04:49:24;12.17;;;6.67;;
4464;SDS011;2245;48.136;13.428;2022-11-23T04:51:51;17.77;;;7.80;;
4464;SDS011;2245;48.136;13.428;2022-11-23T04:54:18;10.93;;;7.07;;
4464;SDS011;2245;48.136;13.428;2022-11-23T04:56:45;13.97;;;8.20;;
4464;SDS011;2245;48.136;13.428;2022-11-23T04:59:14;9.07;;;6.77;;
4464;SDS011;2245;48.136;13.428;2022-11-23T05:01:43;8.47;;;7.10;;
4464;SDS011;2245;48.136;13.428;2022-11-23T05:04:10;9.40;;;6.30;;
4464;SDS011;2245;48.136;13.428;2022-11-23T05:06:38;10.50;;;7.53;;
4464;SDS011;2245;48.136;13.428;2022-11-23T05:09:04;11.80;;;7.77;;
4464;SDS011;2245;48.136;13.428;2022-11-23T05:11:32;11.13;;;6.77;;
4464;SDS011;2245;48.136;13.428;2022-11-23T05:13:59;11.37;;;7.40;;
4464;SDS011;2245;48.136;13.428;2022-11-23T05:16:27;12.70;;;7.47;;
4464;SDS011;2245;48.136;13.428;2022-11-23T05:18:54;12.70;;;8.47;;
4464;SDS011;2245;48.136;13.428;2022-11-23T05:21:21;11.30;;;8.00;;
4464;SDS011;2245;48.136;13.428;2022-11-23T05:23:48;12.50;;;7.77;;
4464;SDS011;2245;48.136;13.428;2022-11-23T05:26:15;13.77;;;9.07;;
4464;SDS011;2245;48.136;13.428;2022-11-23T05:28:43;17.13;;;8.43;;
4464;SDS011;2245;48.136;13.428;2022-11-23T05:31:10;10.00;;;8.10;;
4464;SDS011;2245;48.136;13.428;2022-11-23T05:33:41;13.60;;;8.03;;
4464;SDS011;2245;48.136;13.428;2022-11-23T05:36:08;17.33;;;9.30;;
4464;SDS011;2245;48.136;13.428;2022-11-23T05:38:38;13.00;;;9.53;;
4464;SDS011;2245;48.136;13.428;2022-11-23T05:41:05;10.77;;;8.07;;
4464;SDS011;2245;48.136;13.428;2022-11-23T05:43:32;13.33;;;8.90;;
4464;SDS011;2245;48.136;13.428;2022-11-23T05:45:59;17.37;;;10.37;;
4464;SDS011;2245;48.136;13.428;2022-11-23T05:48:26;14.70;;;8.83;;
4464;SDS011;2245;48.136;13.428;2022-11-23T05:50:55;13.70;;;8.30;;
4464;SDS011;2245;48.136;13.428;2022-11-23T05:53:22;14.63;;;8.13;;
4464;SDS011;2245;48.136;13.428;2022-11-23T05:55:49;14.77;;;7.97;;
4464;SDS011;2245;48.136;13.428;2022-11-23T05:58:16;14.70;;;8.73;;
4464;SDS011;2245;48.136;13.428;2022-11-23T06:00:43;15.83;;;9.43;;
4464;SDS011;2245;48.136;13.428;2022-11-23T06:03:10;27.43;;;11.93;;
4464;SDS011;2245;48.136;13.428;2022-11-23T06:05:37;20.73;;;10.40;;
4464;SDS011;2245;48.136;13.428;2022-11-23T06:08:06;24.37;;;14.50;;
4464;SDS011;2245;48.136;13.428;2022-11-23T06:10:33;29.07;;;15.17;;
4464;SDS011;2245;48.136;13.428;2022-11-23T06:13:03;23.30;;;13.23;;
4464;SDS011;2245;48.136;13.428;2022-11-23T06:15:30;18.60;;;10.73;;
4464;SDS011;2245;48.136;13.428;2022-11-23T06:17:58;19.57;;;12.10;;
4464;SDS011;2245;48.136;13.428;2022-11-23T06:20:26;21.30;;;12.00;;
4464;SDS011;2245;48.136;13.428;2022-11-23T06:22:53;26.13;;;15.17;;
4464;SDS011;2245;48.136;13.428;2022-11-23T06:25:22;21.50;;;12.60;;
4464;SDS011;2245;48.136;13.428;2022-11-23T06:27:55;16.47;;;10.50;;
4464;SDS011;2245;48.136;13.428;2022-11-23T06:30:23;16.27;;;11.77;;
4464;SDS011;2245;48.136;13.428;2022-11-23T06:32:50;28.57;;;14.23;;
4464;SDS011;2245;48.136;13.428;2022-11-23T06:35:19;22.60;;;11.13;;
4464;SDS011;2245;48.136;13.428;2022-11-23T06:37:46;20.37;;;11.03;;
4464;SDS011;2245;48.136;13.428;2022-11-23T06:40:14;26.60;;;16.43;;
4464;SDS011;2245;48.136;13.428;2022-11-23T06:42:43;43.90;;;23.30;;
4464;SDS011;2245;48.136;13.428;2022-11-23T06:45:10;39.43;;;21.13;;
4464;SDS011;2245;48.136;13.428;2022-11-23T06:47:38;36.50;;;19.17;;
4464;SDS011;2245;48.136;13.428;2022-11-23T06:50:05;48.20;;;20.07;;
4464;SDS011;2245;48.136;13.428;2022-11-23T06:52:33;28.83;;;15.70;;
4464;SDS011;2245;48.136;13.428;2022-11-23T06:55:03;29.37;;;16.93;;
4464;SDS011;2245;48.136;13.428;2022-11-23T06:57:31;23.60;;;14.93;;
4464;SDS011;2245;48.136;13.428;2022-11-23T07:00:02;22.37;;;14.93;;
4464;SDS011;2245;48.136;13.428;2022-11-23T07:02:32;20.90;;;12.90;;
4464;SDS011;2245;48.136;13.428;2022-11-23T07:05:01;26.13;;;14.10;;
4464;SDS011;2245;48.136;13.428;2022-11-23T07:07:28;22.90;;;14.67;;
4464;SDS011;2245;48.136;13.428;2022-11-23T07:09:55;18.40;;;12.40;;
4464;SDS011;2245;48.136;13.428;2022-11-23T07:12:23;16.63;;;10.47;;
4464;SDS011;2245;48.136;13.428;2022-11-23T07:14:53;17.40;;;11.17;;
4464;SDS011;2245;48.136;13.428;2022-11-23T07:17:21;20.57;;;11.63;;
4464;SDS011;2245;48.136;13.428;2022-11-23T07:19:49;25.97;;;12.60;;
4464;SDS011;2245;48.136;13.428;2022-11-23T07:22:16;17.73;;;11.90;;
4464;SDS011;2245;48.136;13.428;2022-11-23T07:24:44;21.30;;;12.43;;
4464;SDS011;2245;48.136;13.428;2022-11-23T07:27:11;22.17;;;11.83;;
4464;SDS011;2245;48.136;13.428;2022-11-23T07:29:38;20.97;;;10.90;;
4464;SDS011;2245;48.136;13.428;2022-11-23T07:32:04;20.10;;;11.83;;
4464;SDS011;2245;48.136;13.428;2022-11-23T07:34:34;23.40;;;12.67;;
4464;SDS011;2245;48.136;13.428;2022-11-23T07:37:01;21.13;;;13.27;;
4464;SDS011;2245;48.136;13.428;2022-11-23T07:39:30;27.40;;;16.37;;
4464;SDS011;2245;48.136;13.428;2022-11-23T07:41:58;28.97;;;16.33;;
4464;SDS011;2245;48.136;13.428;2022-11-23T07:44:25;28.47;;;14.10;;
4464;SDS011;2245;48.136;13.428;2022-11-23T07:46:53;26.70;;;13.73;;
4464;SDS011;2245;48.136;13.428;2022-11-23T07:49:20;22.33;;;12.03;;
4464;SDS011;2245;48.136;13.428;2022-11-23T07:51:48;16.30;;;10.70;;
4464;SDS011;2245;48.136;13.428;2022-11-23T07:54:16;23.30;;;11.40;;
4464;SDS011;2245;48.136;13.428;2022-11-23T07:56:43;16.70;;;11.60;;
4464;SDS011;2245;48.136;13.428;2022-11-23T07:59:10;22.57;;;11.97;;
4464;SDS011;2245;48.136;13.428;2022-11-23T08:01:37;18.67;;;11.57;;
4464;SDS011;2245;48.136;13.428;2022-11-23T08:04:05;31.93;;;15.80;;
4464;SDS011;2245;48.136;13.428;2022-11-23T08:09:00;84.53;;;41.17;;
4464;SDS011;2245;48.136;13.428;2022-11-23T08:11:27;49.40;;;29.13;;
4464;SDS011;2245;48.136;13.428;2022-11-23T08:13:55;32.13;;;18.20;;
4464;SDS011;2245;48.136;13.428;2022-11-23T08:16:23;28.07;;;14.10;;
4464;SDS011;2245;48.136;13.428;2022-11-23T08:18:53;25.90;;;13.27;;
4464;SDS011;2245;48.136;13.428;2022-11-23T08:21:20;32.03;;;21.10;;
4464;SDS011;2245;48.136;13.428;2022-11-23T08:23:47;24.70;;;15.40;;
4464;SDS011;2245;48.136;13.428;2022-11-23T08:26:16;21.63;;;12.10;;
4464;SDS011;2245;48.136;13.428;2022-11-23T08:28:45;24.57;;;15.43;;
4464;SDS011;2245;48.136;13.428;2022-11-23T08:31:16;24.10;;;13.10;;
4464;SDS011;2245;48.136;13.428;2022-11-23T08:33:43;30.53;;;12.90;;
4464;SDS011;2245;48.136;13.428;2022-11-23T08:36:12;27.83;;;14.83;;
4464;SDS011;2245;48.136;13.428;2022-11-23T08:38:39;22.40;;;12.53;;
4464;SDS011;2245;48.136;13.428;2022-11-23T08:41:06;18.47;;;10.80;;
4464;SDS011;2245;48.136;13.428;2022-11-23T08:43:36;18.87;;;11.27;;
4464;SDS011;2245;48.136;13.428;2022-11-23T08:46:04;27.83;;;12.23;;
4464;SDS011;2245;48.136;13.428;2022-11-23T08:48:32;20.50;;;11.23;;
4464;SDS011;2245;48.136;13.428;2022-11-23T08:50:58;19.80;;;10.97;;
4464;SDS011;2245;48.136;13.428;2022-11-23T08:53:25;18.43;;;10.93;;
4464;SDS011;2245;48.136;13.428;2022-11-23T08:55:55;22.83;;;11.10;;
4464;SDS011;2245;48.136;13.428;2022-11-23T08:58:22;20.03;;;10.80;;
4464;SDS011;2245;48.136;13.428;2022-11-23T09:00:51;24.37;;;11.07;;
4464;SDS011;2245;48.136;13.428;2022-11-23T09:03:20;20.37;;;10.40;;
4464;SDS011;2245;48.136;13.428;2022-11-23T09:05:47;22.77;;;11.60;;
4464;SDS011;2245;48.136;13.428;2022-11-23T09:08:15;20.27;;;12.20;;
4464;SDS011;2245;48.136;13.428;2022-11-23T09:10:42;22.33;;;10.53;;
4464;SDS011;2245;48.136;13.428;2022-11-23T09:13:09;28.50;;;14.20;;
4464;SDS011;2245;48.136;13.428;2022-11-23T09:15:37;23.03;;;10.63;;
4464;SDS011;2245;48.136;13.428;2022-11-23T09:18:08;15.80;;;9.93;;
4464;SDS011;2245;48.136;13.428;2022-11-23T09:20:35;17.90;;;11.60;;
4464;SDS011;2245;48.136;13.428;2022-11-23T09:23:04;21.30;;;9.70;;
4464;SDS011;2245;48.136;13.428;2022-11-23T09:25:33;17.00;;;10.50;;
4464;SDS011;2245;48.136;13.428;2022-11-23T09:28:00;20.13;;;12.30;;
4464;SDS011;2245;48.136;13.428;2022-11-23T09:30:28;18.47;;;11.13;;
4464;SDS011;2245;48.136;13.428;2022-11-23T09:32:55;15.77;;;9.83;;
4464;SDS011;2245;48.136;13.428;2022-11-23T09:35:24;20.90;;;10.90;;
4464;SDS011;2245;48.136;13.428;2022-11-23T09:37:56;17.93;;;10.20;;
4464;SDS011;2245;48.136;13.428;2022-11-23T09:40:26;18.33;;;9.63;;
4464;SDS011;2245;48.136;13.428;2022-11-23T09:43:01;17.17;;;10.53;;
4464;SDS011;2245;48.136;13.428;2022-11-23T09:45:50;17.50;;;10.23;;
4464;SDS011;2245;48.136;13.428;2022-11-23T09:48:37;14.53;;;9.60;;
4464;SDS011;2245;48.136;13.428;2022-11-23T09:51:16;23.67;;;10.97;;
4464;SDS011;2245;48.136;13.428;2022-11-23T09:53:50;18.33;;;10.60;;
4464;SDS011;2245;48.136;13.428;2022-11-23T09:56:29;20.73;;;12.20;;
4464;SDS011;2245;48.136;13.428;2022-11-23T09:59:01;17.53;;;9.87;;
4464;SDS011;2245;48.136;13.428;2022-11-23T10:01:31;16.80;;;10.00;;
4464;SDS011;2245;48.136;13.428;2022-11-23T10:03:59;24.70;;;10.93;;
4464;SDS011;2245;48.136;13.428;2022-11-23T10:06:38;17.07;;;10.80;;
4464;SDS011;2245;48.136;13.428;2022-11-23T10:09:33;14.00;;;9.80;;
4464;SDS011;2245;48.136;13.428;2022-11-23T10:12:14;17.07;;;10.53;;
4464;SDS011;2245;48.136;13.428;2022-11-23T10:14:48;15.20;;;9.60;;
4464;SDS011;2245;48.136;13.428;2022-11-23T10:20:18;18.53;;;10.87;;
4464;SDS011;2245;48.136;13.428;2022-11-23T10:22:57;16.53;;;9.63;;
4464;SDS011;2245;48.136;13.428;2022-11-23T10:25:28;16.57;;;9.20;;
4464;SDS011;2245;48.136;13.428;2022-11-23T10:28:03;14.30;;;9.20;;
4464;SDS011;2245;48.136;13.428;2022-11-23T10:31:01;15.93;;;7.80;;
4464;SDS011;2245;48.136;13.428;2022-11-23T10:33:38;13.03;;;8.30;;
4464;SDS011;2245;48.136;13.428;2022-11-23T10:36:07;17.47;;;9.23;;
4464;SDS011;2245;48.136;13.428;2022-11-23T10:38:50;15.53;;;9.90;;
4464;SDS011;2245;48.136;13.428;2022-11-23T10:41:23;15.30;;;9.40;;
4464;SDS011;2245;48.136;13.428;2022-11-23T10:43:55;12.00;;;8.10;;
4464;SDS011;2245;48.136;13.428;2022-11-23T10:46:28;14.40;;;7.13;;
4464;SDS011;2245;48.136;13.428;2022-11-23T10:49:09;15.07;;;7.53;;
4464;SDS011;2245;48.136;13.428;2022-11-23T10:51:53;13.43;;;7.57;;
4464;SDS011;2245;48.136;13.428;2022-11-23T10:54:26;9.23;;;6.83;;
4464;SDS011;2245;48.136;13.428;2022-11-23T10:57:01;16.00;;;7.90;;
4464;SDS011;2245;48.136;13.428;2022-11-23T10:59:34;12.30;;;7.37;;
4464;SDS011;2245;48.136;13.428;2022-11-23T11:02:13;13.37;;;7.73;;
4464;SDS011;2245;48.136;13.428;2022-11-23T11:04:44;11.17;;;7.83;;
4464;SDS011;2245;48.136;13.428;2022-11-23T11:07:19;14.60;;;8.00;;
4464;SDS011;2245;48.136;13.428;2022-11-23T11:09:53;12.23;;;7.30;;
4464;SDS011;2245;48.136;13.428;2022-11-23T11:12:24;16.10;;;8.23;;
4464;SDS011;2245;48.136;13.428;2022-11-23T11:15:15;15.77;;;8.67;;
4464;SDS011;2245;48.136;13.428;2022-11-23T11:17:46;10.30;;;6.70;;
4464;SDS011;2245;48.136;13.428;2022-11-23T11:23:16;12.17;;;7.23;;
4464;SDS011;2245;48.136;13.428;2022-11-23T11:26:06;11.07;;;7.83;;
4464;SDS011;2245;48.136;13.428;2022-11-23T11:28:46;11.50;;;6.20;;
4464;SDS011;2245;48.136;13.428;2022-11-23T11:34:35;14.53;;;6.97;;
4464;SDS011;2245;48.136;13.428;2022-11-23T11:37:08;15.33;;;7.10;;
4464;SDS011;2245;48.136;13.428;2022-11-23T11:39:51;11.90;;;7.27;;
4464;SDS011;2245;48.136;13.428;2022-11-23T11:42:29;10.07;;;7.40;;
4464;SDS011;2245;48.136;13.428;2022-11-23T11:45:02;8.40;;;6.10;;
4464;SDS011;2245;48.136;13.428;2022-11-23T11:47:40;9.83;;;6.77;;
4464;SDS011;2245;48.136;13.428;2022-11-23T11:50:19;14.00;;;5.80;;
4464;SDS011;2245;48.136;13.428;2022-11-23T11:52:52;7.70;;;5.10;;
4464;SDS011;2245;48.136;13.428;2022-11-23T11:55:39;6.47;;;5.17;;
4464;SDS011;2245;48.136;13.428;2022-11-23T11:58:38;8.07;;;5.23;;
4464;SDS011;2245;48.136;13.428;2022-11-23T12:01:18;8.93;;;5.63;;
4464;SDS011;2245;48.136;13.428;2022-11-23T12:03:59;9.40;;;5.40;;
4464;SDS011;2245;48.136;13.428;2022-11-23T12:06:38;6.30;;;5.43;;
4464;SDS011;2245;48.136;13.428;2022-11-23T12:09:15;5.33;;;4.47;;
4464;SDS011;2245;48.136;13.428;2022-11-23T12:11:44;5.03;;;3.73;;
4464;SDS011;2245;48.136;13.428;2022-11-23T12:14:20;6.20;;;4.27;;
4464;SDS011;2245;48.136;13.428;2022-11-23T12:16:54;8.83;;;4.50;;
4464;SDS011;2245;48.136;13.428;2022-11-23T12:19:29;4.13;;;3.73;;
4464;SDS011;2245;48.136;13.428;2022-11-23T12:22:23;8.93;;;4.50;;
4464;SDS011;2245;48.136;13.428;2022-11-23T12:27:59;4.83;;;3.83;;
4464;SDS011;2245;48.136;13.428;2022-11-23T12:30:50;10.60;;;4.43;;
4464;SDS011;2245;48.136;13.428;2022-11-23T12:36:29;4.27;;;3.83;;
4464;SDS011;2245;48.136;13.428;2022-11-23T12:39:08;7.70;;;4.67;;
4464;SDS011;2245;48.136;13.428;2022-11-23T12:41:50;7.53;;;4.50;;
4464;SDS011;2245;48.136;13.428;2022-11-23T12:47:18;8.17;;;7.00;;
4464;SDS011;2245;48.136;13.428;2022-11-23T12:49:56;7.07;;;4.17;;
4464;SDS011;2245;48.136;13.428;2022-11-23T12:52:37;5.83;;;4.53;;
4464;SDS011;2245;48.136;13.428;2022-11-23T12:55:19;17.90;;;4.53;;
4464;SDS011;2245;48.136;13.428;2022-11-23T12:57:51;8.13;;;4.50;;
4464;SDS011;2245;48.136;13.428;2022-11-23T13:00:30;6.67;;;3.83;;
4464;SDS011;2245;48.136;13.428;2022-11-23T13:03:08;5.77;;;4.80;;
4464;SDS011;2245;48.136;13.428;2022-11-23T13:06:30;7.60;;;4.43;;
4464;SDS011;2245;48.136;13.428;2022-11-23T13:09:31;4.70;;;4.07;;
4464;SDS011;2245;48.136;13.428;2022-11-23T13:12:17;25.23;;;5.70;;
4464;SDS011;2245;48.136;13.428;2022-11-23T13:14:53;11.43;;;5.73;;
4464;SDS011;2245;48.136;13.428;2022-11-23T13:17:29;6.17;;;4.43;;
4464;SDS011;2245;48.136;13.428;2022-11-23T13:22:54;25.97;;;6.67;;
4464;SDS011;2245;48.136;13.428;2022-11-23T13:25:26;16.87;;;6.77;;
4464;SDS011;2245;48.136;13.428;2022-11-23T13:27:56;15.27;;;7.40;;
4464;SDS011;2245;48.136;13.428;2022-11-23T13:30:30;13.70;;;5.50;;
4464;SDS011;2245;48.136;13.428;2022-11-23T13:33:22;9.90;;;5.03;;
4464;SDS011;2245;48.136;13.428;2022-11-23T13:36:02;10.07;;;5.47;;
4464;SDS011;2245;48.136;13.428;2022-11-23T13:38:41;5.87;;;4.50;;
4464;SDS011;2245;48.136;13.428;2022-11-23T13:44:22;8.60;;;5.73;;
4464;SDS011;2245;48.136;13.428;2022-11-23T13:49:51;7.30;;;4.33;;
4464;SDS011;2245;48.136;13.428;2022-11-23T13:52:48;12.30;;;4.90;;
4464;SDS011;2245;48.136;13.428;2022-11-23T13:55:32;13.90;;;5.60;;
4464;SDS011;2245;48.136;13.428;2022-11-23T14:01:08;12.20;;;5.37;;
4464;SDS011;2245;48.136;13.428;2022-11-23T14:03:53;13.63;;;6.23;;
4464;SDS011;2245;48.136;13.428;2022-11-23T14:06:35;19.37;;;5.70;;
4464;SDS011;2245;48.136;13.428;2022-11-23T14:09:14;22.47;;;10.03;;
4464;SDS011;2245;48.136;13.428;2022-11-23T14:11:51;17.33;;;6.20;;
4464;SDS011;2245;48.136;13.428;2022-11-23T14:14:28;22.97;;;8.40;;
4464;SDS011;2245;48.136;13.428;2022-11-23T14:27:44;17.73;;;7.70;;
4464;SDS011;2245;48.136;13.428;2022-11-23T14:30:34;12.33;;;5.80;;
4464;SDS011;2245;48.136;13.428;2022-11-23T14:33:18;12.40;;;5.93;;
4464;SDS011;2245;48.136;13.428;2022-11-23T14:36:02;18.33;;;6.37;;
4464;SDS011;2245;48.136;13.428;2022-11-23T14:41:46;7.80;;;5.57;;
4464;SDS011;2245;48.136;13.428;2022-11-23T14:44:22;6.73;;;5.30;;
4464;SDS011;2245;48.136;13.428;2022-11-23T14:47:00;6.87;;;4.83;;
4464;SDS011;2245;48.136;13.428;2022-11-23T14:49:28;15.83;;;6.10;;
4464;SDS011;2245;48.136;13.428;2022-11-23T14:52:01;7.43;;;5.40;;
4464;SDS011;2245;48.136;13.428;2022-11-23T14:54:39;7.20;;;5.33;;
4464;SDS011;2245;48.136;13.428;2022-11-23T15:00:32;8.30;;;5.80;;
4464;SDS011;2245;48.136;13.428;2022-11-23T15:03:05;7.30;;;5.80;;
4464;SDS011;2245;48.136;13.428;2022-11-23T15:05:39;11.83;;;6.40;;
4464;SDS011;2245;48.136;13.428;2022-11-23T15:08:17;16.33;;;7.23;;
4464;SDS011;2245;48.136;13.428;2022-11-23T15:11:04;8.80;;;6.43;;
4464;SDS011;2245;48.136;13.428;2022-11-23T15:13:40;9.00;;;5.73;;
4464;SDS011;2245;48.136;13.428;2022-11-23T15:16:15;9.03;;;5.73;;
4464;SDS011;2245;48.136;13.428;2022-11-23T15:18:51;8.17;;;6.43;;
4464;SDS011;2245;48.136;13.428;2022-11-23T15:21:23;6.37;;;5.70;;
4464;SDS011;2245;48.136;13.428;2022-11-23T15:24:17;9.33;;;7.60;;
4464;SDS011;2245;48.136;13.428;2022-11-23T15:30:40;23.80;;;11.63;;
4464;SDS011;2245;48.136;13.428;2022-11-23T15:36:03;17.00;;;10.00;;
4464;SDS011;2245;48.136;13.428;2022-11-23T15:38:32;20.17;;;11.50;;
4464;SDS011;2245;48.136;13.428;2022-11-23T15:41:06;25.80;;;11.93;;
4464;SDS011;2245;48.136;13.428;2022-11-23T15:43:37;20.03;;;11.77;;
4464;SDS011;2245;48.136;13.428;2022-11-23T15:46:17;20.10;;;10.33;;
4464;SDS011;2245;48.136;13.428;2022-11-23T15:48:55;23.30;;;11.00;;
4464;SDS011;2245;48.136;13.428;2022-11-23T15:51:24;12.13;;;8.03;;
4464;SDS011;2245;48.136;13.428;2022-11-23T15:54:19;21.27;;;9.53;;
4464;SDS011;2245;48.136;13.428;2022-11-23T15:56:52;16.23;;;9.13;;
4464;SDS011;2245;48.136;13.428;2022-11-23T15:59:29;19.70;;;9.10;;
4464;SDS011;2245;48.136;13.428;2022-11-23T16:02:10;27.83;;;14.70;;
4464;SDS011;2245;48.136;13.428;2022-11-23T16:25:20;19.50;;;10.47;;
4464;SDS011;2245;48.136;13.428;2022-11-23T16:27:58;21.60;;;9.57;;
4464;SDS011;2245;48.136;13.428;2022-11-23T16:30:35;18.90;;;9.03;;
4464;SDS011;2245;48.136;13.428;2022-11-23T16:33:15;22.80;;;8.90;;
4464;SDS011;2245;48.136;13.428;2022-11-23T16:35:58;35.50;;;22.50;;